createdAt,value
2023-03-02T00:01:53.804Z,56.99
2023-03-02T00:04:24.764Z,57.25
2023-03-02T00:06:52.334Z,56.69
2023-03-02T00:09:18.805Z,57.01
2023-03-02T00:11:45.694Z,56.75
2023-03-02T00:14:12.202Z,57.95
2023-03-02T00:16:40.140Z,57.65
2023-03-02T00:19:06.547Z,57.38
2023-03-02T00:21:32.886Z,58.54
2023-03-02T00:23:59.409Z,58.48
2023-03-02T00:26:25.734Z,57.76
2023-03-02T00:28:52.112Z,58.25
2023-03-02T00:31:19.394Z,58.40
2023-03-02T00:33:45.824Z,58.62
2023-03-02T00:36:18.953Z,58.40
2023-03-02T00:38:48.114Z,58.57
2023-03-02T00:41:15.737Z,59.00
2023-03-02T00:43:42.897Z,58.30
2023-03-02T00:46:15.172Z,57.85
2023-03-02T00:48:41.837Z,58.20
2023-03-02T00:51:09.271Z,58.09
2023-03-02T00:53:36.407Z,58.00
2023-03-02T00:56:03.654Z,57.65
2023-03-02T00:58:31.206Z,58.22
2023-03-02T01:00:58.657Z,58.26
2023-03-02T01:03:25.482Z,58.39
2023-03-02T01:05:55.218Z,57.87
2023-03-02T01:08:25.169Z,58.52
2023-03-02T01:10:54.320Z,57.77
2023-03-02T01:13:21.235Z,57.39
2023-03-02T01:15:47.927Z,57.71
2023-03-02T01:18:14.693Z,57.54
2023-03-02T01:20:41.062Z,57.31
2023-03-02T01:23:07.538Z,57.87
2023-03-02T01:25:33.928Z,57.70
2023-03-02T01:28:00.425Z,58.48
2023-03-02T01:30:26.843Z,58.53
2023-03-02T01:32:53.187Z,58.26
2023-03-02T01:35:19.568Z,58.75
2023-03-02T01:37:45.989Z,58.43
2023-03-02T01:43:53.061Z,58.36
2023-03-02T01:46:24.599Z,59.06
2023-03-02T01:48:59.403Z,59.52
2023-03-02T01:51:27.933Z,59.50
2023-03-02T01:53:56.970Z,59.34
2023-03-02T01:56:27.177Z,59.50
2023-03-02T01:59:01.871Z,59.65
2023-03-02T02:01:30.360Z,59.97
2023-03-02T02:03:57.136Z,60.30
2023-03-02T02:06:26.400Z,59.94
2023-03-02T02:08:54.158Z,60.27
2023-03-02T02:11:20.546Z,59.63
2023-03-02T02:13:46.952Z,60.19
2023-03-02T02:16:13.757Z,59.52
2023-03-02T02:18:41.203Z,59.89
2023-03-02T02:21:08.652Z,59.26
2023-03-02T02:24:02.296Z,60.13
2023-03-02T02:26:44.909Z,60.56
2023-03-02T02:29:32.996Z,60.29
2023-03-02T02:32:03.851Z,60.49
2023-03-02T02:34:39.586Z,60.83
2023-03-02T02:37:09.465Z,60.55
2023-03-02T02:39:39.454Z,60.23
2023-03-02T02:42:10.448Z,59.97
2023-03-02T02:44:37.022Z,60.25
2023-03-02T02:47:03.453Z,60.61
2023-03-02T02:49:34.202Z,60.31
2023-03-02T02:52:01.378Z,60.67
2023-03-02T02:54:29.270Z,60.18
2023-03-02T02:56:56.837Z,60.09
2023-03-02T02:59:33.321Z,60.14
2023-03-02T03:01:59.920Z,60.98
2023-03-02T03:04:29.209Z,61.29
2023-03-02T03:06:58.665Z,61.21
2023-03-02T03:09:26.705Z,60.37
2023-03-02T03:11:58.738Z,60.86
2023-03-02T03:14:29.558Z,60.95
2023-03-02T03:16:56.282Z,60.66
2023-03-02T03:19:29.057Z,61.61
2023-03-02T03:21:58.371Z,61.07
2023-03-02T03:24:25.838Z,61.42
2023-03-02T03:26:54.195Z,60.72
2023-03-02T03:29:24.049Z,60.98
2023-03-02T03:31:51.482Z,62.32
2023-03-02T03:34:17.817Z,63.00
2023-03-02T03:36:44.253Z,62.29
2023-03-02T03:39:12.239Z,62.55
2023-03-02T03:41:39.151Z,62.22
2023-03-02T03:44:05.842Z,62.37
2023-03-02T03:46:32.809Z,62.57
2023-03-02T03:48:59.591Z,63.03
2023-03-02T03:51:26.545Z,62.90
2023-03-02T03:54:02.133Z,63.97
2023-03-02T03:56:30.992Z,64.30
2023-03-02T03:59:06.429Z,64.79
2023-03-02T04:01:54.485Z,64.44
2023-03-02T04:04:24.179Z,64.22
2023-03-02T04:06:51.324Z,64.35
2023-03-02T04:09:20.658Z,64.59
2023-03-02T04:11:49.768Z,64.97
2023-03-02T04:14:16.762Z,65.03
2023-03-02T04:16:43.547Z,64.30
2023-03-02T04:19:11.257Z,64.34
2023-03-02T04:21:39.390Z,64.94
2023-03-02T04:24:06.586Z,65.12
2023-03-02T04:26:33.829Z,65.29
2023-03-02T04:29:00.625Z,65.25
2023-03-02T04:31:27.022Z,65.29
2023-03-02T04:33:53.523Z,65.63
2023-03-02T04:36:20.060Z,66.08
2023-03-02T04:38:47.313Z,65.71
2023-03-02T04:41:13.726Z,65.46
2023-03-02T04:43:40.105Z,66.32
2023-03-02T04:46:06.574Z,65.59
2023-03-02T04:48:33.401Z,65.76
2023-03-02T04:50:59.755Z,65.75
2023-03-02T04:53:26.159Z,65.18
2023-03-02T04:55:52.541Z,66.02
2023-03-02T04:58:19.025Z,65.78
2023-03-02T05:00:45.457Z,65.74
2023-03-02T05:03:12.620Z,66.43
2023-03-02T05:05:39.285Z,65.34
2023-03-02T05:08:05.699Z,65.65
2023-03-02T05:10:32.215Z,65.67
2023-03-02T05:12:58.615Z,65.87
2023-03-02T05:15:27.746Z,66.29
2023-03-02T05:17:54.343Z,66.60
2023-03-02T05:20:21.278Z,66.36
2023-03-02T05:22:47.825Z,66.33
2023-03-02T05:25:14.605Z,66.98
2023-03-02T05:27:41.062Z,66.96
2023-03-02T05:30:08.288Z,66.61
2023-03-02T05:32:37.269Z,67.49
2023-03-02T05:35:03.832Z,67.03
2023-03-02T05:37:30.221Z,67.30
2023-03-02T05:39:56.812Z,66.77
2023-03-02T05:42:23.185Z,67.35
2023-03-02T05:44:49.736Z,67.40
2023-03-02T05:47:16.216Z,67.47
2023-03-02T05:49:42.686Z,67.34
2023-03-02T05:52:09.083Z,66.89
2023-03-02T05:54:35.452Z,67.60
2023-03-02T05:57:01.990Z,67.09
2023-03-02T05:59:28.375Z,66.84
2023-03-02T06:01:58.620Z,66.41
2023-03-02T06:04:25.709Z,66.63
2023-03-02T06:06:52.307Z,66.75
2023-03-02T06:09:18.738Z,66.56
2023-03-02T06:11:45.170Z,67.22
2023-03-02T06:14:11.625Z,66.52
2023-03-02T06:16:39.368Z,66.45
2023-03-02T06:19:08.824Z,66.56
2023-03-02T06:21:35.258Z,66.35
2023-03-02T06:24:01.800Z,66.59
2023-03-02T06:26:28.207Z,66.96
2023-03-02T06:28:54.654Z,67.06
2023-03-02T06:31:21.772Z,66.46
2023-03-02T06:33:48.186Z,66.37
2023-03-02T06:36:16.867Z,66.99
2023-03-02T06:38:43.665Z,66.49
2023-03-02T06:41:10.133Z,66.90
2023-03-02T06:43:36.616Z,66.46
2023-03-02T06:46:03.092Z,66.51
2023-03-02T06:48:29.516Z,66.91
2023-03-02T06:50:55.963Z,66.70
2023-03-02T06:53:23.401Z,66.38
2023-03-02T06:55:50.526Z,65.02
2023-03-02T06:58:17.213Z,65.33
2023-03-02T07:00:43.801Z,64.57
2023-03-02T07:03:10.209Z,64.64
2023-03-02T07:05:36.891Z,63.65
2023-03-02T07:08:03.639Z,63.39
2023-03-02T07:10:30.217Z,63.31
2023-03-02T07:12:56.690Z,63.11
2023-03-02T07:15:23.038Z,63.02
2023-03-02T07:17:49.418Z,63.03
2023-03-02T07:20:17.684Z,62.41
2023-03-02T07:22:44.608Z,62.11
2023-03-02T07:25:11.875Z,61.85
2023-03-02T07:27:38.718Z,61.03
2023-03-02T07:30:06.284Z,60.65
2023-03-02T07:32:32.823Z,60.34
2023-03-02T07:34:59.378Z,59.67
2023-03-02T07:37:26.111Z,59.97
2023-03-02T07:39:52.498Z,59.81
2023-03-02T07:42:18.953Z,59.77
2023-03-02T07:44:45.417Z,59.05
2023-03-02T07:47:11.997Z,58.48
2023-03-02T07:49:38.663Z,59.22
2023-03-02T07:52:05.606Z,59.01
2023-03-02T07:54:32.045Z,58.01
2023-03-02T07:56:58.486Z,58.18
2023-03-02T07:59:24.882Z,57.91
2023-03-02T08:01:51.480Z,58.27
2023-03-02T08:04:18.050Z,58.00
2023-03-02T08:06:44.404Z,57.46
2023-03-02T08:09:10.975Z,57.22
2023-03-02T08:11:37.572Z,56.91
2023-03-02T08:14:04.051Z,56.67
2023-03-02T08:16:30.830Z,56.93
2023-03-02T08:18:59.756Z,56.61
2023-03-02T08:21:27.211Z,56.61
2023-03-02T08:23:53.805Z,56.89
2023-03-02T08:26:20.557Z,55.90
2023-03-02T08:28:47.234Z,56.09
2023-03-02T08:31:14.125Z,55.66
2023-03-02T08:33:40.655Z,55.15
2023-03-02T08:36:28.374Z,55.43
2023-03-02T08:38:54.728Z,55.06
2023-03-02T08:41:22.794Z,54.31
2023-03-02T08:43:49.442Z,54.18
2023-03-02T08:46:18.927Z,53.67
2023-03-02T08:48:45.578Z,54.32
2023-03-02T08:51:15.018Z,53.13
2023-03-02T08:53:43.422Z,53.30
2023-03-02T08:56:30.211Z,53.07
2023-03-02T08:58:59.598Z,52.92
2023-03-02T09:01:32.157Z,52.91
2023-03-02T09:04:00.526Z,52.80
2023-03-02T09:06:28.422Z,52.81
2023-03-02T09:08:54.815Z,52.39
2023-03-02T09:11:21.221Z,52.88
2023-03-02T09:13:47.562Z,52.42
2023-03-02T09:16:14.140Z,51.93
2023-03-02T09:18:40.853Z,51.64
2023-03-02T09:21:07.328Z,52.03
2023-03-02T09:23:35.370Z,50.84
2023-03-02T09:26:01.762Z,51.94
2023-03-02T09:28:28.480Z,51.29
2023-03-02T09:31:00.179Z,51.37
2023-03-02T09:33:27.282Z,50.98
2023-03-02T09:35:53.668Z,50.75
2023-03-02T09:38:20.148Z,49.87
2023-03-02T09:40:49.766Z,50.99
2023-03-02T09:43:33.978Z,49.60
2023-03-02T09:46:14.407Z,49.70
2023-03-02T09:49:04.189Z,50.61
2023-03-02T09:51:43.668Z,49.26
2023-03-02T09:54:13.582Z,48.47
2023-03-02T09:56:44.253Z,48.55
2023-03-02T09:59:21.807Z,48.86
2023-03-02T10:02:01.344Z,48.03
2023-03-02T10:04:31.172Z,48.28
2023-03-02T10:07:01.923Z,48.29
2023-03-02T10:09:28.708Z,48.67
2023-03-02T10:12:28.583Z,48.49
2023-03-02T10:14:57.190Z,48.05
2023-03-02T10:17:39.496Z,46.83
2023-03-02T10:20:15.369Z,47.15
2023-03-02T10:22:48.462Z,46.86
2023-03-02T10:25:30.984Z,46.44
2023-03-02T10:28:19.336Z,46.80
2023-03-02T10:30:49.937Z,46.98
2023-03-02T10:33:18.814Z,46.96
2023-03-02T10:35:48.409Z,46.68
2023-03-02T10:38:25.314Z,46.70
2023-03-02T10:40:59.672Z,46.27
2023-03-02T10:43:33.581Z,46.43
2023-03-02T10:46:02.083Z,46.64
2023-03-02T10:48:29.118Z,45.01
2023-03-02T10:50:58.162Z,45.57
2023-03-02T10:53:24.794Z,45.07
2023-03-02T10:55:53.103Z,45.10
2023-03-02T10:58:19.981Z,44.99
2023-03-02T11:00:59.952Z,45.16
2023-03-02T11:03:27.135Z,44.93
2023-03-02T11:05:53.577Z,44.92
2023-03-02T11:08:26.316Z,44.74
2023-03-02T11:11:00.836Z,44.45
2023-03-02T11:13:30.610Z,44.77
2023-03-02T11:16:02.169Z,45.18
2023-03-02T11:18:37.188Z,44.24
2023-03-02T11:21:06.389Z,44.26
2023-03-02T11:23:38.664Z,44.49
2023-03-02T11:26:09.382Z,44.23
2023-03-02T11:28:41.834Z,43.21
2023-03-02T11:31:15.766Z,44.43
2023-03-02T11:33:52.369Z,43.72
2023-03-02T11:36:21.433Z,44.22
2023-03-02T11:38:51.468Z,44.08
2023-03-02T11:41:38.176Z,44.18
2023-03-02T11:44:16.970Z,44.33
2023-03-02T11:46:48.474Z,43.46
2023-03-02T11:49:21.346Z,43.76
2023-03-02T11:51:58.296Z,43.61
2023-03-02T11:54:45.818Z,43.11
2023-03-02T11:57:23.884Z,43.28
2023-03-02T11:59:50.657Z,42.88
2023-03-02T12:02:18.025Z,42.88
2023-03-02T12:04:44.552Z,42.67
2023-03-02T12:07:23.568Z,42.57
2023-03-02T12:10:21.744Z,42.56
2023-03-02T12:13:00.778Z,41.95
2023-03-02T12:15:35.552Z,41.79
2023-03-02T12:18:02.049Z,40.98
2023-03-02T12:20:29.905Z,41.31
2023-03-02T12:23:07.991Z,41.64
2023-03-02T12:25:43.097Z,41.79
2023-03-02T12:28:39.145Z,40.86
2023-03-02T12:31:14.717Z,41.26
2023-03-02T12:33:46.923Z,41.14
2023-03-02T12:36:19.099Z,40.71
2023-03-02T12:38:54.416Z,41.09
2023-03-02T12:41:42.328Z,40.15
2023-03-02T12:44:38.590Z,40.12
2023-03-02T12:47:12.616Z,40.82
2023-03-02T12:49:51.427Z,40.87
2023-03-02T12:52:22.778Z,41.27
2023-03-02T12:54:59.783Z,40.53
2023-03-02T12:57:26.446Z,40.77
2023-03-02T12:59:58.213Z,40.60
2023-03-02T13:02:28.587Z,40.57
2023-03-02T13:05:03.797Z,40.48
2023-03-02T13:07:35.881Z,41.67
2023-03-02T13:10:06.893Z,40.72
2023-03-02T13:12:34.415Z,40.37
2023-03-02T13:15:01.093Z,40.71
2023-03-02T13:17:31.162Z,40.13
2023-03-02T13:20:02.060Z,40.55
2023-03-02T13:22:28.755Z,39.76
2023-03-02T13:24:58.991Z,39.87
2023-03-02T13:27:26.174Z,39.20
2023-03-02T13:29:55.387Z,38.84
2023-03-02T13:32:27.150Z,38.76
2023-03-02T13:34:55.989Z,38.28
2023-03-02T13:37:34.626Z,37.92
2023-03-02T13:40:02.579Z,37.53
2023-03-02T13:42:36.195Z,37.42
2023-03-02T13:45:19.562Z,37.93
2023-03-02T13:47:45.903Z,38.37
2023-03-02T13:50:38.754Z,37.88
2023-03-02T13:53:06.983Z,37.48
2023-03-02T13:55:33.836Z,37.18
2023-03-02T13:58:00.530Z,37.12
2023-03-02T14:00:32.615Z,36.67
2023-03-02T14:02:59.265Z,36.83
2023-03-02T14:05:32.769Z,36.99
2023-03-02T14:08:00.395Z,37.40
2023-03-02T14:10:26.952Z,37.50
2023-03-02T14:13:05.425Z,37.11
2023-03-02T14:15:32.652Z,37.17
2023-03-02T14:18:00.157Z,36.34
2023-03-02T14:20:26.524Z,36.56
2023-03-02T14:22:52.950Z,36.84
2023-03-02T14:25:20.467Z,37.21
2023-03-02T14:27:47.459Z,36.88
2023-03-02T14:30:19.607Z,37.70
2023-03-02T14:32:46.527Z,37.59
2023-03-02T14:35:14.395Z,36.59
2023-03-02T14:37:44.770Z,36.96
2023-03-02T14:40:23.493Z,37.53
2023-03-02T14:42:51.748Z,37.17
2023-03-02T14:45:18.337Z,37.54
2023-03-02T14:47:44.895Z,37.37
2023-03-02T14:50:11.886Z,38.35
2023-03-02T14:52:44.285Z,37.71
2023-03-02T14:55:20.470Z,38.08
2023-03-02T14:57:48.112Z,38.45
2023-03-02T15:00:15.441Z,37.93
2023-03-02T15:02:42.073Z,37.56
2023-03-02T15:05:09.165Z,37.95
2023-03-02T15:07:37.089Z,37.46
2023-03-02T15:10:03.714Z,38.02
2023-03-02T15:12:30.058Z,38.49
2023-03-02T15:14:56.448Z,37.84
2023-03-02T15:17:23.089Z,37.54
2023-03-02T15:19:49.511Z,37.56
2023-03-02T15:22:16.288Z,37.77
2023-03-02T15:24:42.678Z,38.01
2023-03-02T15:27:09.132Z,37.99
2023-03-02T15:29:35.546Z,38.57
2023-03-02T15:32:02.242Z,37.95
2023-03-02T15:34:28.958Z,38.19
2023-03-02T15:36:55.444Z,38.27
2023-03-02T15:39:21.876Z,39.39
2023-03-02T15:41:48.347Z,38.75
2023-03-02T15:44:21.824Z,38.41
2023-03-02T15:46:49.560Z,38.52
2023-03-02T15:49:16.118Z,38.87
2023-03-02T15:51:42.501Z,39.00
2023-03-02T15:54:10.822Z,39.08
2023-03-02T15:56:43.936Z,38.96
2023-03-02T15:59:11.272Z,39.60
2023-03-02T16:01:37.793Z,39.71
2023-03-02T16:04:04.287Z,40.52
2023-03-02T16:06:30.692Z,40.97
2023-03-02T16:08:57.006Z,41.33
2023-03-02T16:11:23.499Z,41.35
2023-03-02T16:13:51.695Z,41.27
2023-03-02T16:16:19.398Z,41.83
2023-03-02T16:18:52.630Z,41.32
2023-03-02T16:21:18.937Z,41.87
2023-03-02T16:23:45.673Z,41.42
2023-03-02T16:26:14.786Z,41.77
2023-03-02T16:28:41.482Z,41.39
2023-03-02T16:31:13.610Z,41.65
2023-03-02T16:33:40.807Z,41.71
2023-03-02T16:36:08.303Z,41.83
2023-03-02T16:38:36.923Z,41.90
2023-03-02T16:41:23.554Z,41.61
2023-03-02T16:43:55.743Z,42.14
2023-03-02T16:46:23.397Z,42.38
2023-03-02T16:48:49.997Z,42.02
2023-03-02T16:51:17.388Z,40.19
2023-03-02T16:53:44.142Z,39.36
2023-03-02T16:56:11.699Z,39.35
2023-03-02T16:58:39.640Z,39.51
2023-03-02T17:01:07.528Z,39.91
2023-03-02T17:03:34.589Z,40.13
2023-03-02T17:06:01.427Z,40.19
2023-03-02T17:08:28.125Z,40.21
2023-03-02T17:10:54.706Z,40.43
2023-03-02T17:13:21.064Z,41.14
2023-03-02T17:15:47.449Z,40.79
2023-03-02T17:18:13.884Z,40.24
2023-03-02T17:20:40.436Z,40.95
2023-03-02T17:23:07.210Z,40.25
2023-03-02T17:25:33.856Z,39.56
2023-03-02T17:28:00.202Z,39.94
2023-03-02T17:30:26.632Z,39.26
2023-03-02T17:32:53.043Z,40.06
2023-03-02T17:35:19.862Z,40.12
2023-03-02T17:37:46.255Z,38.79
2023-03-02T17:40:14.365Z,38.97
2023-03-02T17:42:40.929Z,38.51
2023-03-02T17:45:08.126Z,38.25
2023-03-02T17:47:35.188Z,39.09
2023-03-02T17:50:03.785Z,38.12
2023-03-02T17:52:30.531Z,38.04
2023-03-02T17:54:56.869Z,38.43
2023-03-02T17:57:23.344Z,37.84
2023-03-02T17:59:52.664Z,38.63
2023-03-02T18:02:19.189Z,37.57
2023-03-02T18:04:45.822Z,38.21
2023-03-02T18:07:13.961Z,37.49
2023-03-02T18:09:42.648Z,37.47
2023-03-02T18:12:09.409Z,37.54
2023-03-02T18:14:36.355Z,37.90
2023-03-02T18:17:04.810Z,37.84
2023-03-02T18:19:31.570Z,37.55
2023-03-02T18:21:58.120Z,37.62
2023-03-02T18:24:25.084Z,37.98
2023-03-02T18:26:51.511Z,37.15
2023-03-02T18:29:18.017Z,37.27
2023-03-02T18:31:44.685Z,36.88
2023-03-02T18:34:11.238Z,37.49
2023-03-02T18:36:37.810Z,37.53
2023-03-02T18:39:04.556Z,38.07
2023-03-02T18:41:32.249Z,37.22
2023-03-02T18:44:01.232Z,37.76
2023-03-02T18:46:29.012Z,37.84
2023-03-02T18:48:56.293Z,38.28
2023-03-02T18:51:23.791Z,38.36
2023-03-02T18:53:51.161Z,37.92
2023-03-02T18:56:18.382Z,38.62
2023-03-02T18:58:45.037Z,38.03
2023-03-02T19:01:11.668Z,38.64
2023-03-02T19:03:38.870Z,37.93
2023-03-02T19:06:07.345Z,38.87
2023-03-02T19:08:35.340Z,38.74
2023-03-02T19:11:02.134Z,38.35
2023-03-02T19:13:28.717Z,38.48
2023-03-02T19:15:55.354Z,38.40
2023-03-02T19:18:23.300Z,37.98
2023-03-02T19:20:49.997Z,38.24
2023-03-02T19:23:17.163Z,38.01
2023-03-02T19:25:44.588Z,37.88
2023-03-02T19:28:11.795Z,38.12
2023-03-02T19:30:39.931Z,38.09
2023-03-02T19:33:09.049Z,37.48
2023-03-02T19:35:37.735Z,37.95
2023-03-02T19:38:05.841Z,37.85
2023-03-02T19:40:32.569Z,37.65
2023-03-02T19:42:58.944Z,37.75
2023-03-02T19:45:29.259Z,37.83
2023-03-02T19:47:57.858Z,38.44
2023-03-02T19:50:25.664Z,37.73
2023-03-02T19:52:54.623Z,38.07
2023-03-02T19:55:22.216Z,37.69
2023-03-02T19:57:51.364Z,38.16
2023-03-02T20:00:19.997Z,38.39
2023-03-02T20:02:47.162Z,39.47
2023-03-02T20:05:15.001Z,38.27
2023-03-02T20:07:42.667Z,38.96
2023-03-02T20:10:10.380Z,39.31
2023-03-02T20:12:37.017Z,39.38
2023-03-02T20:15:04.722Z,40.24
2023-03-02T20:17:31.221Z,40.13
2023-03-02T20:19:58.436Z,40.66
2023-03-02T20:22:25.683Z,40.73
2023-03-02T20:24:52.030Z,41.07
2023-03-02T20:27:18.512Z,41.57
2023-03-02T20:29:45.053Z,41.18
2023-03-02T20:32:12.730Z,42.31
2023-03-02T20:34:40.874Z,43.22
2023-03-02T20:37:07.647Z,43.41
2023-03-02T20:39:41.231Z,42.34
2023-03-02T20:42:08.842Z,42.48
2023-03-02T20:44:35.829Z,43.44
2023-03-02T20:47:08.141Z,43.48
2023-03-02T20:49:35.888Z,44.54
2023-03-02T20:52:05.128Z,44.97
2023-03-02T20:54:35.121Z,44.51
2023-03-02T20:57:01.563Z,45.22
2023-03-02T20:59:28.519Z,45.61
2023-03-02T21:01:55.249Z,45.54
2023-03-02T21:04:21.979Z,46.04
2023-03-02T21:06:48.399Z,46.19
2023-03-02T21:09:15.242Z,46.89
2023-03-02T21:11:41.619Z,46.97
2023-03-02T21:14:14.008Z,46.69
2023-03-02T21:16:43.075Z,47.62
2023-03-02T21:19:13.809Z,47.71
2023-03-02T21:21:42.370Z,47.73
2023-03-02T21:24:10.667Z,48.29
2023-03-02T21:26:37.287Z,48.19
2023-03-02T21:29:05.315Z,48.83
2023-03-02T21:31:31.732Z,48.63
2023-03-02T21:33:59.963Z,49.15
2023-03-02T21:36:26.520Z,49.62
2023-03-02T21:38:53.719Z,49.71
2023-03-02T21:41:20.280Z,49.62
2023-03-02T21:43:47.645Z,50.43
2023-03-02T21:46:16.297Z,50.51
2023-03-02T21:48:43.278Z,50.73
2023-03-02T21:51:12.109Z,51.08
2023-03-02T21:53:38.622Z,51.47
2023-03-02T21:56:05.710Z,51.17
2023-03-02T21:58:32.187Z,50.92
2023-03-02T22:00:58.542Z,51.64
2023-03-02T22:03:25.027Z,52.47
2023-03-02T22:05:51.912Z,52.53
2023-03-02T22:08:19.735Z,52.26
2023-03-02T22:10:48.422Z,52.30
2023-03-02T22:13:25.733Z,52.24
2023-03-02T22:16:13.620Z,53.19
2023-03-02T22:18:43.438Z,53.35
2023-03-02T22:21:37.728Z,53.79
2023-03-02T22:24:10.902Z,53.55
2023-03-02T22:26:40.516Z,54.09
2023-03-02T22:29:16.144Z,54.47
2023-03-02T22:31:47.835Z,54.50
2023-03-02T22:34:24.052Z,54.77
2023-03-02T22:36:50.647Z,54.31
2023-03-02T22:39:27.217Z,54.44
2023-03-02T22:42:00.202Z,54.68
2023-03-02T22:44:26.723Z,55.19
2023-03-02T22:46:55.349Z,54.82
2023-03-02T22:49:21.763Z,54.42
2023-03-02T22:51:48.198Z,55.10
2023-03-02T22:54:45.481Z,56.10
2023-03-02T22:57:27.880Z,55.86
2023-03-02T23:00:10.978Z,56.32
2023-03-02T23:02:41.929Z,55.99
2023-03-02T23:05:27.313Z,56.66
2023-03-02T23:08:01.247Z,57.03
2023-03-02T23:10:30.603Z,56.47
2023-03-02T23:16:44.457Z,57.07
2023-03-02T23:19:10.922Z,57.12
2023-03-02T23:21:45.585Z,57.28
2023-03-02T23:24:12.720Z,57.47
2023-03-02T23:26:39.392Z,58.27
2023-03-02T23:29:06.477Z,58.69
2023-03-02T23:31:33.482Z,58.96
2023-03-02T23:34:00.165Z,58.83
2023-03-02T23:36:27.854Z,59.49
2023-03-02T23:38:54.298Z,59.94
2023-03-02T23:41:20.841Z,58.84
2023-03-02T23:43:47.304Z,60.03
2023-03-02T23:46:14.047Z,58.91
2023-03-02T23:48:41.665Z,60.86
2023-03-02T23:51:08.165Z,61.06
2023-03-02T23:53:34.550Z,60.65
2023-03-02T23:56:00.934Z,61.28
2023-03-02T23:58:27.759Z,61.07
